Time;durP1;ratioP1;P1;durP2;ratioP2;P2;SDS_P1;SDS_P2;PMS_P1;PMS_P2;Temp;Humidity;BMP_temperature;BMP_pressure;BME280_temperature;BME280_humidity;BME280_pressure;Samples;Min_cycle;Max_cycle;Signal;HPM_P1;HPM_P2
2022/10/24 00:02:11;;;;;;;7.13;6.47;;;;;;;17.31;74.68;96425.97;5095848;28;20173;-57
2022/10/24 00:04:38;;;;;;;6.35;5.65;;;;;;;17.30;74.54;96424.41;5095824;28;20180;-52
2022/10/24 00:07:05;;;;;;;6.50;6.10;;;;;;;17.30;74.79;96421.75;5095448;28;20200;-56
2022/10/24 00:09:31;;;;;;;6.78;6.07;;;;;;;17.29;74.71;96414.88;5095766;28;20173;-55
2022/10/24 00:11:57;;;;;;;7.40;6.25;;;;;;;17.29;74.59;96407.72;5095605;28;20211;-58
2022/10/24 00:14:22;;;;;;;6.57;6.03;;;;;;;17.25;74.94;96414.63;5095485;28;20204;-56
2022/10/24 00:16:48;;;;;;;7.00;6.35;;;;;;;17.24;74.79;96417.56;5095637;28;20208;-57
2022/10/24 00:19:13;;;;;;;10.75;6.70;;;;;;;17.21;75.05;96421.56;5095390;28;20663;-57
2022/10/24 00:21:39;;;;;;;8.25;7.55;;;;;;;17.13;75.56;96422.16;5095128;28;20169;-57
2022/10/24 00:24:05;;;;;;;12.23;11.20;;;;;;;17.13;75.88;96429.31;5095727;28;20177;-57
2022/10/24 00:26:31;;;;;;;17.08;15.68;;;;;;;17.06;75.80;96426.97;5095373;28;20209;-56
2022/10/24 00:28:57;;;;;;;23.40;21.77;;;;;;;17.03;75.97;96416.94;5095295;28;20207;-57
2022/10/24 00:31:22;;;;;;;30.88;28.77;;;;;;;16.98;76.71;96436.31;5095115;28;20177;-56
2022/10/24 00:33:47;;;;;;;30.65;28.60;;;;;;;16.97;76.66;96431.28;5095134;28;20187;-55
2022/10/24 00:36:19;;;;;;;26.42;24.48;;;;;;;16.95;76.60;96441.34;5095309;28;20233;-57
2022/10/24 00:38:44;;;;;;;27.15;25.42;;;;;;;16.97;76.30;96433.91;5095121;28;20183;-56
2022/10/24 00:41:24;;;;;;;24.20;22.38;;;;;;;16.97;76.56;96434.72;5095205;28;20177;-56
2022/10/24 00:44:10;;;;;;;16.90;15.50;;;;;;;16.98;76.38;96438.94;5094816;28;20184;-57
2022/10/24 00:46:36;;;;;;;14.13;13.05;;;;;;;16.95;76.68;96433.41;5092243;28;20603;-57
2022/10/24 00:49:01;;;;;;;18.15;16.73;;;;;;;16.93;76.80;96432.91;5094900;28;20181;-57
2022/10/24 00:51:31;;;;;;;12.02;11.00;;;;;;;16.91;77.05;96429.72;5095147;28;20169;-56
2022/10/24 00:54:01;;;;;;;11.52;9.02;;;;;;;16.90;77.43;96430.78;5075989;28;20695;-55
2022/10/24 00:56:33;;;;;;;14.50;13.33;;;;;;;16.95;77.51;96436.84;5093667;28;20180;-53
2022/10/24 00:59:00;;;;;;;17.23;15.93;;;;;;;16.90;77.99;96428.13;5094846;28;20645;-52
2022/10/24 01:01:26;;;;;;;28.42;26.77;;;;;;;16.88;78.13;96438.22;5094503;28;20176;-53
2022/10/24 01:03:51;;;;;;;38.65;36.13;;;;;;;16.86;78.51;96437.69;5094585;28;20583;-54
2022/10/24 01:06:53;;;;;;;53.60;50.20;;;;;;;16.89;78.73;96431.84;5094664;28;20633;-54
2022/10/24 01:09:28;;;;;;;64.50;60.75;;;;;;;16.77;79.35;96434.84;5090239;28;20231;-52
2022/10/24 01:12:11;;;;;;;50.35;47.30;;;;;;;16.80;79.72;96436.94;5094404;28;20196;-54
2022/10/24 01:14:52;;;;;;;39.45;37.15;;;;;;;16.86;79.36;96445.66;5094288;28;20172;-54
2022/10/24 01:17:35;;;;;;;28.13;26.23;;;;;;;16.80;79.72;96446.72;5093163;28;20289;-51
2022/10/24 01:20:18;;;;;;;31.77;29.88;;;;;;;16.75;80.23;96444.13;5094244;28;20181;-55
2022/10/24 01:22:47;;;;;;;31.97;29.90;;;;;;;16.75;80.01;96444.13;5075784;28;20218;-53
2022/10/24 01:25:38;;;;;;;31.43;29.33;;;;;;;16.72;80.34;96448.09;5059518;28;20704;-55
2022/10/24 01:28:10;;;;;;;29.27;26.93;;;;;;;16.64;80.73;96438.09;5094114;28;20204;-54
2022/10/24 01:30:51;;;;;;;27.67;25.67;;;;;;;16.61;80.98;96434.13;5093818;28;20177;-54
2022/10/24 01:33:31;;;;;;;18.75;17.48;;;;;;;16.53;81.62;96437.34;5094351;28;20200;-56
2022/10/24 01:36:07;;;;;;;11.13;8.13;;;;;;;16.51;81.90;96442.09;5094076;28;20629;-50
2022/10/24 01:38:46;;;;;;;11.57;6.47;;;;;;;16.42;83.01;96435.00;5093864;28;20195;-57
2022/10/24 01:41:16;;;;;;;13.43;12.25;;;;;;;16.43;83.54;96441.88;5093643;28;20202;-56
2022/10/24 01:44:01;;;;;;;28.60;27.02;;;;;;;16.37;84.02;96437.69;5093743;28;20180;-54
2022/10/24 01:46:32;;;;;;;27.87;25.93;;;;;;;16.33;84.70;96431.34;5091280;28;20232;-56
2022/10/24 01:49:04;;;;;;;13.23;12.20;;;;;;;16.22;86.40;96439.31;5093673;28;20233;-52
2022/10/24 01:51:32;;;;;;;40.60;38.00;;;;;;;16.13;87.89;96442.78;5093699;28;20180;-55
2022/10/24 01:53:58;;;;;;;35.17;32.87;;;;;;;16.13;88.54;96450.72;5093359;28;20234;-51
2022/10/24 01:56:27;;;;;;;12.07;10.80;;;;;;;16.06;89.40;96436.97;5093755;28;20515;-51
2022/10/24 01:58:52;;;;;;;9.27;8.47;;;;;;;16.08;89.37;96437.50;5093635;28;20535;-53
2022/10/24 02:01:22;;;;;;;11.13;10.17;;;;;;;16.06;90.28;96429.84;5093990;28;20165;-54
2022/10/24 02:03:56;;;;;;;10.20;7.13;;;;;;;16.07;90.35;96428.78;5093298;28;20176;-52
2022/10/24 02:06:37;;;;;;;8.27;5.77;;;;;;;16.00;91.25;96440.69;5093494;28;20177;-55
2022/10/24 02:09:10;;;;;;;19.40;17.90;;;;;;;15.95;91.78;96443.38;5093582;28;20185;-53
2022/10/24 02:11:37;;;;;;;28.13;26.33;;;;;;;16.02;91.72;96438.59;5093298;28;20237;-57
2022/10/24 02:14:20;;;;;;;22.53;21.03;;;;;;;16.00;92.45;96449.44;5093112;28;20173;-50
2022/10/24 02:16:46;;;;;;;12.57;11.57;;;;;;;16.01;92.73;96450.22;5090311;28;20211;-51
2022/10/24 02:19:12;;;;;;;9.93;9.13;;;;;;;16.05;92.81;96453.94;5092768;28;20557;-53
2022/10/24 02:21:49;;;;;;;8.27;7.50;;;;;;;16.03;93.30;96448.91;5093084;28;20251;-55
2022/10/24 02:24:20;;;;;;;6.73;6.20;;;;;;;16.03;93.63;96440.97;5093153;28;20621;-55
2022/10/24 02:26:51;;;;;;;8.17;7.37;;;;;;;16.05;94.22;96444.13;5093065;28;20208;-51
2022/10/24 02:29:33;;;;;;;23.00;21.33;;;;;;;16.06;94.48;96442.28;5093191;28;20191;-56
2022/10/24 02:31:58;;;;;;;34.57;32.37;;;;;;;16.03;95.18;96435.69;5093273;28;20172;-56
2022/10/24 02:34:30;;;;;;;41.50;38.83;;;;;;;16.08;95.13;96435.66;5093023;28;20181;-55
2022/10/24 02:36:58;;;;;;;30.77;28.77;;;;;;;15.99;95.95;96426.72;5092846;28;20207;-55
2022/10/24 02:39:25;;;;;;;25.80;24.27;;;;;;;15.99;95.83;96418.00;5093037;28;20187;-55
2022/10/24 02:41:53;;;;;;;21.83;20.33;;;;;;;15.96;96.73;96400.00;5092946;28;20180;-56
2022/10/24 02:44:20;;;;;;;16.70;15.30;;;;;;;15.86;97.68;96403.50;5074350;28;20188;-55
2022/10/24 02:46:49;;;;;;;14.30;12.90;;;;;;;15.85;98.16;96409.81;5090101;28;20646;-55
2022/10/24 02:49:15;;;;;;;11.60;10.60;;;;;;;15.85;98.37;96393.19;5092928;28;20181;-57
2022/10/24 02:51:43;;;;;;;9.60;8.70;;;;;;;15.85;98.39;96393.19;5092885;28;20183;-57
2022/10/24 02:54:10;;;;;;;9.47;8.37;;;;;;;15.84;98.95;96392.38;5092051;28;20181;-55
2022/10/24 02:56:40;;;;;;;10.03;9.03;;;;;;;15.84;99.62;96402.94;5092708;28;20215;-53
2022/10/24 02:59:05;;;;;;;8.60;7.73;;;;;;;15.80;100.00;96394.78;5092653;28;20180;-57
2022/10/24 03:01:31;;;;;;;9.80;9.07;;;;;;;15.69;100.00;96408.28;5092749;28;20260;-56
2022/10/24 03:03:56;;;;;;;12.90;11.83;;;;;;;15.78;100.00;96409.31;5092403;28;20283;-57
2022/10/24 03:06:22;;;;;;;8.73;7.93;;;;;;;15.78;100.00;96420.69;5092278;28;20184;-51
2022/10/24 03:08:47;;;;;;;9.37;8.50;;;;;;;15.73;100.00;96412.75;5092332;28;20193;-52
2022/10/24 03:11:13;;;;;;;12.13;10.93;;;;;;;15.77;100.00;96405.09;5092826;28;20172;-54
2022/10/24 03:13:38;;;;;;;11.67;10.47;;;;;;;15.78;100.00;96410.09;5092347;28;20176;-57
2022/10/24 03:16:03;;;;;;;11.37;10.47;;;;;;;15.83;100.00;96424.38;5092571;28;20663;-57
2022/10/24 03:18:29;;;;;;;14.57;13.10;;;;;;;15.75;100.00;96428.34;5092065;28;20196;-56
2022/10/24 03:20:55;;;;;;;13.33;11.93;;;;;;;15.70;100.00;96418.59;5088669;28;20263;-55
2022/10/24 03:23:20;;;;;;;11.77;10.60;;;;;;;15.66;100.00;96425.44;5096750;28;20219;-55
2022/10/24 03:25:46;;;;;;;12.20;9.73;;;;;;;15.67;100.00;96428.88;5096776;28;20177;-55
2022/10/24 03:28:11;;;;;;;11.77;8.67;;;;;;;15.61;100.00;96428.09;5096414;28;20684;-56
2022/10/24 03:30:37;;;;;;;9.77;8.97;;;;;;;15.59;100.00;96434.72;5096654;28;20172;-57
2022/10/24 03:33:02;;;;;;;10.73;9.77;;;;;;;15.58;100.00;96425.22;5096511;28;20214;-56
2022/10/24 03:35:28;;;;;;;12.13;10.43;;;;;;;15.60;100.00;96433.69;5096415;28;20226;-54
2022/10/24 03:37:53;;;;;;;12.43;11.30;;;;;;;15.57;100.00;96427.06;5096159;28;20283;-56
2022/10/24 03:40:18;;;;;;;13.40;12.20;;;;;;;15.56;100.00;96419.41;5096449;28;20188;-56
2022/10/24 03:42:44;;;;;;;15.43;14.23;;;;;;;15.61;100.00;96419.38;5096083;28;20192;-55
2022/10/24 03:45:09;;;;;;;12.07;11.10;;;;;;;15.62;100.00;96419.13;5095967;28;20199;-56
2022/10/24 03:47:35;;;;;;;16.20;14.77;;;;;;;15.62;100.00;96426.25;5093977;28;20239;-57
2022/10/24 03:50:00;;;;;;;18.57;17.30;;;;;;;15.57;100.00;96420.97;5096263;28;20183;-54
2022/10/24 03:52:26;;;;;;;27.97;26.10;;;;;;;15.55;100.00;96399.34;5096153;28;20180;-54
2022/10/24 03:54:51;;;;;;;29.20;27.23;;;;;;;15.56;100.00;96411.47;5095340;28;20271;-53
2022/10/24 03:57:17;;;;;;;20.00;18.30;;;;;;;15.44;100.00;96408.28;5095822;28;20211;-55
2022/10/24 03:59:42;;;;;;;16.90;15.27;;;;;;;15.40;100.00;96406.19;5095940;28;20287;-53
2022/10/24 04:02:08;;;;;;;13.93;12.57;;;;;;;15.40;100.00;96410.69;5096123;28;20600;-55
2022/10/24 04:04:33;;;;;;;15.93;14.27;;;;;;;15.38;100.00;96408.28;5095477;28;20263;-52
2022/10/24 04:06:59;;;;;;;15.47;14.10;;;;;;;15.48;100.00;96425.22;5095568;28;20230;-52
2022/10/24 04:09:25;;;;;;;15.43;14.20;;;;;;;15.42;100.00;96420.97;5095635;28;20173;-55
2022/10/24 04:11:52;;;;;;;17.00;15.50;;;;;;;15.32;100.00;96424.44;5095534;28;20219;-54
2022/10/24 04:14:19;;;;;;;14.53;13.00;;;;;;;15.38;100.00;96426.78;5077946;28;20230;-56
2022/10/24 04:16:44;;;;;;;11.63;10.53;;;;;;;15.42;100.00;96429.69;5095062;28;20204;-55
2022/10/24 04:19:10;;;;;;;11.93;9.73;;;;;;;15.40;100.00;96427.31;5095044;28;20192;-56
2022/10/24 04:21:36;;;;;;;10.17;9.33;;;;;;;15.37;100.00;96429.72;5095133;28;20180;-52
2022/10/24 04:24:02;;;;;;;12.07;8.37;;;;;;;15.31;100.00;96423.63;5095652;28;20222;-55
2022/10/24 04:26:28;;;;;;;11.17;8.13;;;;;;;15.28;100.00;96431.28;5095195;28;20208;-56
2022/10/24 04:28:53;;;;;;;8.43;7.60;;;;;;;15.28;100.00;96423.34;5095135;28;20281;-56
2022/10/24 04:31:19;;;;;;;9.00;8.00;;;;;;;15.20;100.00;96418.63;5095145;28;20204;-56
2022/10/24 04:33:44;;;;;;;14.70;8.57;;;;;;;15.25;100.00;96406.22;5095277;28;20612;-55
2022/10/24 04:36:09;;;;;;;8.60;7.17;;;;;;;15.33;100.00;96407.50;5094941;28;20195;-56
2022/10/24 04:38:35;;;;;;;10.87;8.00;;;;;;;15.25;100.00;96397.50;5094999;28;20235;-56
2022/10/24 04:41:01;;;;;;;10.47;8.30;;;;;;;15.26;100.00;96393.81;5094916;28;20188;-55
2022/10/24 04:43:26;;;;;;;9.67;8.50;;;;;;;15.27;100.00;96404.06;5094810;28;20233;-55
2022/10/24 04:45:52;;;;;;;14.07;9.37;;;;;;;15.25;100.00;96418.63;5089204;28;20188;-55
2022/10/24 04:48:17;;;;;;;10.27;9.13;;;;;;;15.26;100.00;96415.72;5078415;28;20208;-54
2022/10/24 04:50:44;;;;;;;11.27;8.70;;;;;;;15.33;100.00;96416.22;5094754;28;20176;-52
2022/10/24 04:53:09;;;;;;;9.57;8.70;;;;;;;15.23;100.00;96420.72;5094269;28;20200;-55
2022/10/24 04:55:35;;;;;;;9.90;8.33;;;;;;;15.18;100.00;96431.28;5094530;28;20180;-53
2022/10/24 04:58:01;;;;;;;8.73;7.83;;;;;;;15.26;100.00;96422.84;5094746;28;20778;-51
2022/10/24 05:00:27;;;;;;;7.80;6.87;;;;;;;15.21;100.00;96413.06;5094826;28;20549;-53
2022/10/24 05:02:52;;;;;;;7.40;6.77;;;;;;;15.19;100.00;96409.91;5094604;28;20168;-49
2022/10/24 05:05:18;;;;;;;9.97;8.90;;;;;;;15.12;100.00;96416.50;5094581;28;20187;-52
2022/10/24 05:07:44;;;;;;;12.13;10.43;;;;;;;15.22;100.00;96413.84;5094259;28;20618;-55
2022/10/24 05:10:10;;;;;;;13.20;10.87;;;;;;;15.28;100.00;96410.94;5094437;28;20173;-50
2022/10/24 05:12:36;;;;;;;11.30;10.40;;;;;;;15.30;100.00;96421.25;5094449;28;20288;-50
2022/10/24 05:15:02;;;;;;;15.70;13.97;;;;;;;15.28;100.00;96413.59;5094277;28;20184;-50
2022/10/24 05:17:27;;;;;;;26.30;24.20;;;;;;;15.34;100.00;96419.66;5093435;28;20201;-53
2022/10/24 05:19:53;;;;;;;24.50;22.57;;;;;;;15.36;100.00;96417.56;5093898;28;20207;-52
2022/10/24 05:22:18;;;;;;;14.53;13.33;;;;;;;15.33;100.00;96420.72;5094312;28;20177;-52
2022/10/24 05:24:43;;;;;;;11.20;10.20;;;;;;;15.36;100.00;96420.19;5093939;28;20633;-52
2022/10/24 05:27:09;;;;;;;8.50;5.87;;;;;;;15.40;100.00;96427.31;5075972;28;20303;-56
2022/10/24 05:29:34;;;;;;;8.07;4.90;;;;;;;15.50;100.00;96429.16;5075851;28;20200;-54
2022/10/24 05:32:00;;;;;;;11.07;5.97;;;;;;;15.48;100.00;96425.22;5094275;28;20234;-52
2022/10/24 05:34:26;;;;;;;6.90;6.23;;;;;;;15.61;100.00;96428.09;5094125;28;20683;-50
2022/10/24 05:36:52;;;;;;;11.47;8.37;;;;;;;15.67;100.00;96415.69;5093965;28;20269;-57
2022/10/24 05:39:17;;;;;;;9.83;8.87;;;;;;;15.72;100.00;96418.31;5090010;28;20690;-53
2022/10/24 05:41:43;;;;;;;9.63;8.77;;;;;;;15.75;100.00;96433.66;5093275;28;20212;-55
2022/10/24 05:44:11;;;;;;;9.80;8.87;;;;;;;15.78;100.00;96423.31;5093729;28;20188;-55
2022/10/24 05:46:37;;;;;;;31.57;28.83;;;;;;;15.80;100.00;96429.13;5082560;28;20237;-57
2022/10/24 05:49:03;;;;;;;11.13;10.20;;;;;;;15.83;100.00;96427.03;5073512;28;20280;-55
2022/10/24 05:51:28;;;;;;;9.73;8.70;;;;;;;15.83;100.00;96427.03;5073593;28;20183;-55
2022/10/24 05:53:53;;;;;;;9.53;8.57;;;;;;;15.83;100.00;96432.31;5072229;28;20219;-58
2022/10/24 05:56:19;;;;;;;8.73;7.90;;;;;;;15.87;100.00;96433.34;5073278;28;20181;-58
2022/10/24 05:58:44;;;;;;;8.03;7.33;;;;;;;15.89;100.00;96434.66;5073759;28;20177;-58
2022/10/24 06:01:10;;;;;;;14.17;7.97;;;;;;;15.86;100.00;96445.78;5055549;28;20527;-62
2022/10/24 06:03:35;;;;;;;7.43;6.73;;;;;;;15.88;100.00;96442.88;5073331;28;20552;-55
2022/10/24 06:06:05;;;;;;;8.23;7.53;;;;;;;15.92;100.00;96443.91;5073146;28;20239;-56
2022/10/24 06:08:33;;;;;;;14.30;13.13;;;;;;;15.95;100.00;96449.44;5072781;28;20296;-65
2022/10/24 06:10:58;;;;;;;16.70;15.17;;;;;;;16.41;100.00;96459.88;5072833;28;20678;-61
2022/10/24 06:13:24;;;;;;;8.02;7.32;;;;;;;16.35;100.00;96453.81;5073039;28;20264;-66
2022/10/24 06:15:49;;;;;;;20.20;18.80;;;;;;;16.21;100.00;96469.47;5072094;28;20673;-56
2022/10/24 06:18:15;;;;;;;34.77;32.47;;;;;;;16.10;100.00;96473.22;5070411;28;20197;-56
2022/10/24 06:20:40;;;;;;;30.50;28.55;;;;;;;16.11;100.00;96476.63;5064890;28;20748;-54
2022/10/24 06:23:06;;;;;;;23.55;22.15;;;;;;;16.08;100.00;96493.03;5064621;28;20182;-55
2022/10/24 06:25:31;;;;;;;11.83;10.80;;;;;;;16.08;100.00;96480.63;5069335;28;20331;-56
2022/10/24 06:27:57;;;;;;;10.82;9.73;;;;;;;16.09;100.00;96473.47;5072121;28;20231;-55
2022/10/24 06:30:22;;;;;;;14.73;13.73;;;;;;;16.00;100.00;96483.78;5072506;28;20173;-53
2022/10/24 06:32:47;;;;;;;18.67;17.47;;;;;;;15.98;100.00;96485.94;5072035;28;20553;-55
2022/10/24 06:35:14;;;;;;;19.13;17.83;;;;;;;15.96;100.00;96471.38;5071797;28;20180;-55
2022/10/24 06:37:40;;;;;;;15.40;14.35;;;;;;;15.87;100.00;96462.44;5071937;28;20216;-56
2022/10/24 06:40:06;;;;;;;31.60;29.47;;;;;;;15.78;100.00;96470.09;5072478;28;20177;-56
2022/10/24 06:42:31;;;;;;;31.03;28.97;;;;;;;15.83;100.00;96485.19;5072503;28;20591;-55
2022/10/24 06:44:56;;;;;;;15.13;13.97;;;;;;;15.83;100.00;96488.59;5072126;28;20576;-56
2022/10/24 06:47:22;;;;;;;9.97;9.07;;;;;;;15.85;100.00;96480.41;5084982;28;20274;-55
2022/10/24 06:49:47;;;;;;;6.93;6.43;;;;;;;15.73;100.00;96473.53;5092936;28;20276;-54
2022/10/24 06:52:13;;;;;;;6.23;5.63;;;;;;;15.73;100.00;96478.03;5092475;28;20283;-57
2022/10/24 06:54:39;;;;;;;6.10;5.60;;;;;;;15.84;100.00;96482.25;5090966;28;20632;-52
2022/10/24 06:57:05;;;;;;;6.70;6.10;;;;;;;15.91;100.00;96482.75;5092336;28;20677;-56
2022/10/24 06:59:31;;;;;;;11.63;10.17;;;;;;;15.87;100.00;96479.09;5092390;28;20200;-54
2022/10/24 07:01:57;;;;;;;22.33;20.77;;;;;;;15.92;100.00;96484.34;5092642;28;20633;-56
2022/10/24 07:04:23;;;;;;;18.00;16.33;;;;;;;15.98;100.00;96485.13;5092465;28;20169;-51
2022/10/24 07:06:49;;;;;;;12.53;11.23;;;;;;;16.02;100.00;96488.81;5092100;28;20205;-56
2022/10/24 07:09:14;;;;;;;21.07;19.77;;;;;;;16.05;100.00;96507.56;5092582;28;20234;-53
2022/10/24 07:11:39;;;;;;;33.60;31.23;;;;;;;15.93;100.00;96522.16;5092340;28;20160;-52
2022/10/24 07:14:06;;;;;;;21.50;20.10;;;;;;;15.92;100.00;96541.72;5092231;28;20172;-53
2022/10/24 07:16:31;;;;;;;20.40;18.97;;;;;;;15.89;100.00;96539.59;5091704;28;20242;-52
2022/10/24 07:18:57;;;;;;;15.93;14.53;;;;;;;15.88;100.00;96541.47;5091830;28;20156;-54
2022/10/24 07:21:27;;;;;;;12.90;11.73;;;;;;;15.85;100.00;96544.63;5091539;28;20230;-54
2022/10/24 07:23:54;;;;;;;5.50;5.00;;;;;;;15.89;100.00;96532.44;5091902;28;20197;-55
2022/10/24 07:26:21;;;;;;;10.30;9.43;;;;;;;15.85;100.00;96527.97;5107452;28;20172;-56
2022/10/24 07:28:52;;;;;;;9.83;8.90;;;;;;;15.72;100.00;96527.44;5091823;28;20562;-53
2022/10/24 07:31:19;;;;;;;12.17;11.17;;;;;;;15.68;100.00;96531.69;5083193;28;20180;-51
2022/10/24 07:33:44;;;;;;;12.43;11.50;;;;;;;15.80;100.00;96520.84;5091872;28;20172;-52
2022/10/24 07:36:17;;;;;;;11.50;10.03;;;;;;;15.74;100.00;96519.25;5091690;28;20659;-57
2022/10/24 07:38:43;;;;;;;8.10;6.57;;;;;;;15.68;100.00;96531.69;5092002;28;20609;-53
2022/10/24 07:41:08;;;;;;;15.07;13.87;;;;;;;15.67;100.00;96538.00;5092077;28;20168;-53
2022/10/24 07:43:34;;;;;;;10.27;9.30;;;;;;;15.70;100.00;96544.63;5092077;28;20551;-53
2022/10/24 07:46:03;;;;;;;7.67;6.97;;;;;;;15.60;100.00;96537.50;5089258;28;20250;-52
2022/10/24 07:48:29;;;;;;;7.47;6.70;;;;;;;15.70;100.00;96539.34;5091378;28;20224;-56
2022/10/24 07:50:54;;;;;;;17.47;15.90;;;;;;;15.73;100.00;96534.31;5091815;28;20185;-51
2022/10/24 07:53:19;;;;;;;19.97;18.70;;;;;;;15.71;100.00;96530.38;5090371;28;20278;-53
2022/10/24 07:55:45;;;;;;;20.07;18.57;;;;;;;15.69;100.00;96535.13;5090545;28;20169;-52
2022/10/24 07:58:10;;;;;;;18.00;16.43;;;;;;;15.58;100.00;96547.53;5091869;28;20262;-50
2022/10/24 08:00:36;;;;;;;15.03;13.60;;;;;;;15.57;100.00;96572.38;5091675;28;20211;-53
2022/10/24 08:03:03;;;;;;;15.30;13.97;;;;;;;15.46;100.00;96572.59;5082155;28;20625;-53
2022/10/24 08:05:28;;;;;;;12.30;11.40;;;;;;;15.42;100.00;96574.97;5080141;28;20169;-53
2022/10/24 08:07:53;;;;;;;11.40;10.47;;;;;;;15.32;100.00;96574.97;5095257;28;20291;-55
2022/10/24 08:10:19;;;;;;;10.40;9.43;;;;;;;15.25;100.00;96572.56;5095332;28;20173;-50
2022/10/24 08:12:44;;;;;;;15.93;14.73;;;;;;;15.20;100.00;96566.47;5095318;28;20203;-52
2022/10/24 08:15:10;;;;;;;13.33;12.37;;;;;;;15.21;100.00;96583.91;5095270;28;20275;-55
2022/10/24 08:17:36;;;;;;;14.87;13.57;;;;;;;15.14;100.00;96575.44;5093425;28;20231;-56
2022/10/24 08:20:06;;;;;;;36.77;34.30;;;;;;;15.05;100.00;96532.09;5094531;28;20214;-55
2022/10/24 08:22:32;;;;;;;34.10;31.83;;;;;;;14.96;100.00;96471.91;5095480;28;20660;-53
2022/10/24 08:24:59;;;;;;;23.37;21.23;;;;;;;14.74;100.00;96418.59;5094479;28;20686;-54
2022/10/24 08:27:25;;;;;;;18.47;17.07;;;;;;;14.73;100.00;96429.38;5094887;28;20330;-57
2022/10/24 08:29:50;;;;;;;15.83;14.60;;;;;;;14.77;100.00;96456.81;5095026;28;20264;-56
2022/10/24 08:32:15;;;;;;;16.37;14.83;;;;;;;14.91;100.00;96495.66;5095042;28;20260;-57
2022/10/24 08:34:41;;;;;;;12.77;11.30;;;;;;;15.06;100.00;96494.09;5094666;28;20196;-57
2022/10/24 08:37:06;;;;;;;13.70;12.57;;;;;;;15.00;100.00;96506.50;5094421;28;20208;-55
2022/10/24 08:39:32;;;;;;;10.37;9.33;;;;;;;15.22;100.00;96487.78;5094401;28;20196;-57
2022/10/24 08:42:03;;;;;;;12.13;11.20;;;;;;;15.34;100.00;96504.97;5094492;28;20180;-57
2022/10/24 08:44:43;;;;;;;19.30;18.03;;;;;;;15.44;100.00;96516.56;5094074;28;20625;-55
2022/10/24 08:47:41;;;;;;;26.10;24.37;;;;;;;15.49;100.00;96520.00;5092368;28;20244;-54
2022/10/24 08:50:23;;;;;;;29.30;27.23;;;;;;;15.54;100.00;96524.56;5095232;28;20200;-56
2022/10/24 08:53:13;;;;;;;22.93;21.33;;;;;;;15.51;100.00;96525.84;5094047;28;20553;-57
2022/10/24 08:55:50;;;;;;;31.63;29.63;;;;;;;15.47;100.00;96535.34;5087284;28;20267;-55
2022/10/24 08:58:21;;;;;;;26.27;24.33;;;;;;;15.52;100.00;96519.53;5091191;28;20211;-53
2022/10/24 09:00:49;;;;;;;23.53;21.53;;;;;;;15.43;100.00;96517.66;5079646;28;20222;-55
2022/10/24 09:03:25;;;;;;;28.10;26.07;;;;;;;15.44;100.00;96514.72;5094447;28;20259;-53
2022/10/24 09:05:59;;;;;;;25.27;23.30;;;;;;;15.42;100.00;96514.22;5094044;28;20241;-52
2022/10/24 09:08:37;;;;;;;28.03;26.17;;;;;;;15.40;100.00;96513.69;5093254;28;20204;-54
2022/10/24 09:11:04;;;;;;;27.27;25.57;;;;;;;15.35;100.00;96514.47;5092692;28;20263;-53
2022/10/24 09:13:34;;;;;;;39.03;36.37;;;;;;;15.42;100.00;96513.44;5094232;28;20181;-56
2022/10/24 09:15:59;;;;;;;73.20;68.97;;;;;;;15.48;100.00;96513.16;5093592;28;20192;-56
2022/10/24 09:18:31;;;;;;;50.37;47.23;;;;;;;15.62;100.00;96529.28;5092969;28;20201;-55
2022/10/24 09:20:57;;;;;;;21.77;20.20;;;;;;;15.47;100.00;96530.06;5094086;28;20177;-55
2022/10/24 09:23:24;;;;;;;25.43;23.50;;;;;;;15.53;100.00;96541.47;5094240;28;20181;-57
2022/10/24 09:25:56;;;;;;;24.07;22.50;;;;;;;15.50;100.00;96552.50;5093828;28;20172;-57
2022/10/24 09:28:22;;;;;;;37.27;34.90;;;;;;;15.40;100.00;96556.72;5093846;28;20201;-50
2022/10/24 09:30:49;;;;;;;26.40;24.73;;;;;;;15.42;100.00;96542.47;5094313;28;20219;-50
2022/10/24 09:33:29;;;;;;;95.47;89.57;;;;;;;15.44;100.00;96541.13;5093881;28;20219;-51
2022/10/24 09:35:58;;;;;;;30.03;28.23;;;;;;;15.52;100.00;96556.50;5092977;28;20318;-55
2022/10/24 09:38:33;;;;;;;21.90;20.60;;;;;;;15.57;100.00;96553.06;5093551;28;20625;-53
2022/10/24 09:41:20;;;;;;;23.40;21.93;;;;;;;15.48;100.00;96554.63;5093743;28;20179;-51
2022/10/24 09:43:52;;;;;;;29.67;27.57;;;;;;;15.57;100.00;96547.78;5092058;28;20207;-55
2022/10/24 09:46:28;;;;;;;33.60;31.47;;;;;;;15.48;100.00;96536.16;5091074;28;20228;-54
2022/10/24 09:49:00;;;;;;;36.20;33.87;;;;;;;15.40;100.00;96548.81;5093676;28;20286;-55
2022/10/24 09:51:36;;;;;;;27.20;25.13;;;;;;;15.49;100.00;96543.03;5093405;28;20586;-59
2022/10/24 09:54:23;;;;;;;27.30;25.47;;;;;;;15.54;100.00;96546.50;5092648;28;20723;-56
2022/10/24 09:56:56;;;;;;;23.57;22.07;;;;;;;15.61;100.00;96551.47;5093228;28;20204;-57
2022/10/24 09:59:34;;;;;;;24.03;22.33;;;;;;;15.52;100.00;96547.78;5093007;28;20588;-57
2022/10/24 10:02:25;;;;;;;49.73;46.43;;;;;;;15.58;100.00;96550.19;5093810;28;20168;-57
2022/10/24 10:05:18;;;;;;;25.90;24.27;;;;;;;15.65;100.00;96557.84;5091530;28;20183;-56
2022/10/24 10:07:47;;;;;;;37.93;35.43;;;;;;;15.63;100.00;96559.94;5091343;28;20684;-55
2022/10/24 10:10:18;;;;;;;38.97;36.00;;;;;;;15.61;100.00;96554.91;5092997;28;20264;-54
2022/10/24 10:12:46;;;;;;;23.33;21.47;;;;;;;15.60;100.00;96542.00;5093370;28;20165;-56
2022/10/24 10:15:23;;;;;;;14.30;13.40;;;;;;;15.74;100.00;96556.25;5093027;28;20196;-57
2022/10/24 10:17:53;;;;;;;12.20;11.40;;;;;;;15.86;100.00;96556.00;5091943;28;20632;-55
2022/10/24 10:20:38;;;;;;;11.57;10.13;;;;;;;15.95;100.00;96562.31;5081903;28;20181;-55
2022/10/24 10:23:24;;;;;;;15.35;13.70;;;;;;;15.98;100.00;96548.59;5093251;28;20177;-55
2022/10/24 10:26:04;;;;;;;9.37;8.67;;;;;;;16.07;100.00;96554.91;5092933;28;20192;-55
2022/10/24 10:28:34;;;;;;;16.13;15.13;;;;;;;16.05;100.00;96543.81;5090954;28;21039;-56
2022/10/24 10:30:59;;;;;;;13.23;11.93;;;;;;;16.11;100.00;96538.22;5092545;28;20180;-56
2022/10/24 10:33:43;;;;;;;8.40;7.75;;;;;;;16.25;100.00;96548.28;5093078;28;20664;-55
2022/10/24 10:36:15;;;;;;;39.00;36.67;;;;;;;16.14;100.00;96537.72;5087478;28;20213;-55
2022/10/24 10:39:12;;;;;;;18.63;17.30;;;;;;;16.23;100.00;96537.94;5092646;28;20552;-53
2022/10/24 10:41:52;;;;;;;12.20;11.10;;;;;;;16.34;100.00;96544.81;5068808;28;20571;-52
2022/10/24 10:44:52;;;;;;;14.13;13.20;;;;;;;16.43;100.00;96545.06;5077370;28;20636;-57
2022/10/24 10:47:28;;;;;;;17.73;16.52;;;;;;;16.31;100.00;96549.84;5089730;28;20735;-52
2022/10/24 10:49:57;;;;;;;21.33;20.03;;;;;;;16.38;100.00;96556.44;5092633;28;20205;-56
2022/10/24 10:52:43;;;;;;;11.90;10.93;;;;;;;16.31;100.00;96561.22;5092077;28;20580;-57
2022/10/24 10:55:29;;;;;;;10.87;9.97;;;;;;;16.35;100.00;96566.75;5092577;28;20187;-58
2022/10/24 10:58:29;;;;;;;11.07;10.20;;;;;;;16.31;100.00;96574.44;5092132;28;20196;-57
2022/10/24 11:01:13;;;;;;;10.53;9.57;;;;;;;16.36;100.00;96577.06;5077668;28;20173;-60
2022/10/24 11:03:52;;;;;;;8.17;7.50;;;;;;;16.34;100.00;96581.03;5092169;28;20180;-57
2022/10/24 11:06:30;;;;;;;8.67;7.40;;;;;;;16.22;100.00;96582.13;5091835;28;20191;-55
2022/10/24 11:09:13;;;;;;;7.10;6.70;;;;;;;16.16;100.00;96577.13;5092263;28;20200;-55
2022/10/24 11:11:45;;;;;;;6.13;5.63;;;;;;;16.14;100.00;96581.88;5092205;28;20173;-53
2022/10/24 11:14:16;;;;;;;7.57;7.03;;;;;;;16.19;100.00;96581.88;5090596;28;20644;-55
2022/10/24 11:16:42;;;;;;;10.70;9.75;;;;;;;16.33;100.00;96585.53;5091270;28;20200;-55
2022/10/24 11:19:29;;;;;;;8.03;7.40;;;;;;;16.17;100.00;96587.41;5090846;28;20176;-53
2022/10/24 11:22:02;;;;;;;8.10;7.68;;;;;;;16.37;100.00;96591.09;5092148;28;20164;-54
2022/10/24 11:24:34;;;;;;;10.30;6.68;;;;;;;16.37;100.00;96591.09;5091612;28;20255;-56
2022/10/24 11:27:07;;;;;;;7.17;6.57;;;;;;;16.39;100.00;96589.75;5091543;28;20205;-53
2022/10/24 11:29:44;;;;;;;9.40;8.80;;;;;;;16.16;100.00;96583.19;5092273;28;20173;-52